Time;durP1;ratioP1;P1;durP2;ratioP2;P2;SDS_P1;SDS_P2;PMS_P1;PMS_P2;Temp;Humidity;BMP_temperature;BMP_pressure;BME280_temperature;BME280_humidity;BME280_pressure;Samples;Min_cycle;Max_cycle;Signal;HPM_P1;HPM_P2
2022/04/02 00:00:58;;;;;;;28.10;16.83;;;;;;;5.70;62.31;98070.16;4473484;31;33556;-82
2022/04/02 00:03:26;;;;;;;29.40;17.23;;;;;;;5.95;61.44;98061.94;4471229;32;33249;-83
2022/04/02 00:05:55;;;;;;;28.27;18.02;;;;;;;5.46;62.05;98060.03;4464444;32;33839;-83
2022/04/02 00:08:24;;;;;;;31.80;18.12;;;;;;;5.40;62.77;98055.94;4465095;31;33472;-83
2022/04/02 00:10:52;;;;;;;28.65;18.12;;;;;;;5.92;60.80;98057.69;4470855;32;33414;-82
2022/04/02 00:13:20;;;;;;;30.20;17.87;;;;;;;5.45;61.99;98057.47;4465426;31;33757;-83
2022/04/02 00:15:48;;;;;;;32.20;19.30;;;;;;;5.23;62.53;98073.44;4480169;31;33559;-82
2022/04/02 00:18:16;;;;;;;30.02;17.75;;;;;;;5.44;62.42;98071.50;4465782;31;33474;-83
2022/04/02 00:20:43;;;;;;;28.05;17.73;;;;;;;5.16;62.96;98072.87;4465672;31;33326;-82
2022/04/02 00:25:58;;;;;;;31.08;17.67;;;;;;;4.93;63.84;98065.31;4493847;31;34810;-80
2022/04/02 00:28:25;;;;;;;29.48;17.10;;;;;;;5.10;62.87;98045.25;4478433;31;33822;-81
2022/04/02 00:30:53;;;;;;;30.23;18.08;;;;;;;5.03;63.54;98032.53;4466140;31;32362;-81
2022/04/02 00:33:21;;;;;;;28.25;16.77;;;;;;;5.06;63.02;98032.41;4466449;31;32795;-81
2022/04/02 00:35:49;;;;;;;30.23;17.42;;;;;;;4.83;63.93;98039.59;4492782;31;33542;-80
2022/04/02 00:38:16;;;;;;;30.98;17.10;;;;;;;5.14;62.38;98033.72;4478554;31;33619;-80
2022/04/02 00:40:44;;;;;;;27.20;17.73;;;;;;;5.17;62.35;98024.84;4477696;31;33673;-81
2022/04/02 00:43:25;;;;;;;26.60;16.02;;;;;;;4.97;63.39;98025.84;4468226;31;35230;-80
2022/04/02 00:45:56;;;;;;;30.50;17.80;;;;;;;4.74;64.24;98020.88;4468283;31;32645;-81
2022/04/02 00:48:24;;;;;;;30.48;17.15;;;;;;;4.93;63.88;98024.28;4465683;31;33419;-80
2022/04/02 00:50:57;;;;;;;24.95;16.45;;;;;;;4.84;64.23;98020.37;4477142;31;34232;-81
2022/04/02 00:53:41;;;;;;;28.55;17.45;;;;;;;5.00;63.13;98020.47;4478476;31;34371;-80
2022/04/02 00:56:08;;;;;;;31.62;16.95;;;;;;;4.72;64.42;98015.75;4466518;31;33426;-80
2022/04/02 00:58:39;;;;;;;29.60;17.98;;;;;;;4.88;63.52;98026.28;4479249;31;34479;-80
2022/04/02 01:01:09;;;;;;;27.05;17.40;;;;;;;4.65;64.56;98029.19;4464840;31;31600;-80
2022/04/02 01:03:37;;;;;;;24.73;15.68;;;;;;;4.86;63.50;98022.91;4494076;31;33951;-81
2022/04/02 01:06:08;;;;;;;29.15;17.40;;;;;;;4.62;64.43;98023.19;4478958;31;34055;-81
2022/04/02 01:08:39;;;;;;;26.15;17.40;;;;;;;4.97;62.73;98018.00;4464277;31;33923;-81
2022/04/02 01:11:07;;;;;;;26.20;15.73;;;;;;;4.80;63.12;98029.31;4480110;31;34734;-81
2022/04/02 01:13:35;;;;;;;27.35;16.58;;;;;;;4.62;64.28;98046.72;4468530;31;32691;-81
2022/04/02 01:16:03;;;;;;;25.37;15.23;;;;;;;4.87;63.15;98051.59;4465358;31;34420;-81
2022/04/02 01:18:32;;;;;;;26.25;16.12;;;;;;;4.77;63.30;98058.19;4454522;32;33902;-82
2022/04/02 01:20:59;;;;;;;26.25;15.45;;;;;;;4.99;61.90;98054.56;4460834;31;33777;-81
2022/04/02 01:23:31;;;;;;;27.50;15.52;;;;;;;4.71;62.64;98066.34;4459832;31;33951;-82
2022/04/02 01:26:00;;;;;;;22.83;14.18;;;;;;;4.93;61.90;98075.75;4485712;31;34170;-81
2022/04/02 01:28:34;;;;;;;24.12;14.60;;;;;;;4.70;62.86;98084.69;4459650;31;33142;-82
2022/04/02 01:31:05;;;;;;;20.95;13.80;;;;;;;4.57;62.73;98089.69;4472887;31;32756;-82
2022/04/02 01:33:33;;;;;;;23.33;13.48;;;;;;;4.85;61.97;98089.22;4472634;31;32798;-82
2022/04/02 01:36:05;;;;;;;23.38;14.10;;;;;;;4.54;63.41;98101.13;4486225;31;33976;-81
2022/04/02 01:38:36;;;;;;;20.55;13.35;;;;;;;4.90;61.51;98097.69;4473396;31;33512;-81
2022/04/02 01:41:05;;;;;;;20.42;13.05;;;;;;;4.81;61.52;98090.28;4474986;31;32099;-82
2022/04/02 01:43:34;;;;;;;21.20;13.00;;;;;;;4.76;61.38;98095.75;4467257;31;35067;-82
2022/04/02 01:46:03;;;;;;;21.40;12.20;;;;;;;4.83;61.12;98102.34;4480613;31;33274;-82
2022/04/02 01:48:31;;;;;;;20.10;12.93;;;;;;;4.73;61.80;98101.09;4467912;31;33739;-82
2022/04/02 01:50:59;;;;;;;23.10;13.50;;;;;;;4.77;61.60;98102.66;4472426;31;32665;-81
2022/04/02 01:53:29;;;;;;;20.42;12.60;;;;;;;4.83;61.70;98097.13;4486068;31;33548;-82
2022/04/02 01:55:57;;;;;;;22.98;12.55;;;;;;;4.85;61.29;98107.53;4485007;31;34678;-82
2022/04/02 01:58:27;;;;;;;19.52;12.07;;;;;;;5.02;60.85;98115.41;4472207;31;33892;-82
2022/04/02 02:00:56;;;;;;;27.65;13.40;;;;;;;5.19;59.79;98104.13;4476645;32;33522;-81
2022/04/02 02:03:25;;;;;;;20.58;13.25;;;;;;;4.73;60.91;98111.56;4478188;31;33077;-80
2022/04/02 02:05:53;;;;;;;18.35;12.40;;;;;;;5.06;60.05;98113.50;4465448;32;33695;-81
2022/04/02 02:08:21;;;;;;;22.17;12.85;;;;;;;5.11;59.88;98111.50;4483518;31;33883;-81
2022/04/02 02:10:49;;;;;;;21.67;12.15;;;;;;;5.12;60.01;98118.41;4472994;31;32368;-81
2022/04/02 02:13:20;;;;;;;20.10;13.27;;;;;;;4.74;61.42;98118.47;4472528;31;33780;-81
2022/04/02 02:15:47;;;;;;;20.50;13.65;;;;;;;4.67;61.94;98126.69;4481529;31;33657;-81
2022/04/02 02:18:16;;;;;;;21.87;12.45;;;;;;;4.56;62.02;98129.81;4485113;31;32438;-81
2022/04/02 02:20:44;;;;;;;21.00;12.55;;;;;;;4.73;61.70;98127.25;4485126;31;33296;-81
2022/04/02 02:23:14;;;;;;;22.15;12.75;;;;;;;4.86;61.43;98117.91;4471569;31;33749;-81
2022/04/02 02:25:42;;;;;;;19.52;12.15;;;;;;;4.81;61.43;98126.91;4485187;31;35181;-83
2022/04/02 02:28:10;;;;;;;22.10;13.43;;;;;;;4.95;61.22;98131.47;4485101;31;33873;-83
2022/04/02 02:30:38;;;;;;;22.67;13.00;;;;;;;5.17;60.82;98128.66;4471498;31;32823;-82
2022/04/02 02:35:55;;;;;;;17.58;11.82;;;;;;;5.06;60.35;98121.34;4487830;31;34030;-81
2022/04/02 02:38:23;;;;;;;18.27;11.95;;;;;;;5.29;59.25;98113.22;4499403;31;33669;-82
2022/04/02 02:40:52;;;;;;;21.87;13.38;;;;;;;5.21;59.47;98117.97;4485772;31;34182;-81
2022/04/02 02:43:21;;;;;;;19.67;12.88;;;;;;;5.14;59.56;98116.59;4445380;31;32633;-82
2022/04/02 02:45:50;;;;;;;19.77;12.95;;;;;;;5.19;59.35;98117.22;4482938;31;33614;-82
2022/04/02 02:48:18;;;;;;;20.15;12.90;;;;;;;5.19;59.20;98114.59;4463669;31;32748;-82
2022/04/02 02:50:46;;;;;;;24.63;12.88;;;;;;;4.86;60.54;98123.12;4440361;32;33611;-80
2022/04/02 02:53:14;;;;;;;20.10;12.95;;;;;;;4.48;62.03;98130.16;4469350;32;33447;-81
2022/04/02 02:55:44;;;;;;;22.23;13.13;;;;;;;4.54;61.94;98129.03;4436722;32;33461;-81
2022/04/02 02:58:12;;;;;;;21.65;13.77;;;;;;;4.48;62.04;98137.16;4447884;32;34197;-81
2022/04/02 03:00:42;;;;;;;24.83;14.05;;;;;;;4.56;62.02;98135.88;4449621;32;33656;-81
2022/04/02 03:03:11;;;;;;;25.27;14.38;;;;;;;4.51;62.19;98137.88;4455163;32;33182;-81
2022/04/02 03:05:40;;;;;;;20.05;12.73;;;;;;;4.61;62.19;98138.28;4449206;32;33906;-81
2022/04/02 03:08:08;;;;;;;20.40;13.70;;;;;;;4.92;60.54;98122.00;4459317;32;34007;-81
2022/04/02 03:10:36;;;;;;;22.98;13.00;;;;;;;4.55;61.86;98141.16;4459883;32;33529;-81
2022/04/02 03:13:06;;;;;;;21.62;12.02;;;;;;;4.50;62.03;98143.97;4443391;32;33882;-81
2022/04/02 03:15:34;;;;;;;20.12;12.57;;;;;;;4.48;61.74;98143.22;4475305;32;33837;-81
2022/04/02 03:18:05;;;;;;;19.27;12.07;;;;;;;4.39;62.19;98150.63;4445948;32;33684;-81
2022/04/02 03:20:34;;;;;;;21.45;13.68;;;;;;;4.68;61.59;98146.69;4442248;32;33304;-81
2022/04/02 03:23:03;;;;;;;21.62;12.90;;;;;;;4.63;61.46;98152.12;4435696;32;32742;-82
2022/04/02 03:25:31;;;;;;;19.35;12.70;;;;;;;4.40;62.16;98154.94;4441456;32;33083;-81
2022/04/02 03:28:00;;;;;;;21.77;14.10;;;;;;;4.64;61.87;98145.97;4454151;32;34529;-81
2022/04/02 03:30:27;;;;;;;21.62;14.32;;;;;;;4.60;62.56;98147.03;4476557;32;33048;-81
2022/04/02 03:32:56;;;;;;;24.05;13.00;;;;;;;4.69;62.12;98151.00;4457333;32;33802;-81
2022/04/02 03:35:25;;;;;;;21.35;13.20;;;;;;;4.86;61.13;98151.06;4461040;32;32969;-81
2022/04/02 03:37:53;;;;;;;21.83;13.40;;;;;;;5.23;nan;98146.69;4434519;32;33126;-82
2022/04/02 03:40:26;;;;;;;21.70;12.75;;;;;;;5.00;60.11;98155.66;4448038;32;33205;-81
2022/04/02 03:42:57;;;;;;;20.73;12.43;;;;;;;4.75;61.20;98151.56;4460410;32;33519;-82
2022/04/02 03:45:24;;;;;;;20.80;12.57;;;;;;;4.87;60.57;98155.38;4471077;32;33757;-81
2022/04/02 03:47:52;;;;;;;19.90;14.07;;;;;;;4.75;61.04;98151.56;4445997;32;33224;-81
2022/04/02 03:50:20;;;;;;;21.08;13.40;;;;;;;4.70;61.43;98150.94;4470896;31;34195;-82
2022/04/02 03:52:48;;;;;;;24.20;13.77;;;;;;;4.56;61.42;98141.13;4465793;31;34114;-81
2022/04/02 03:55:16;;;;;;;23.62;13.18;;;;;;;4.56;61.71;98135.03;4478989;31;33902;-82
2022/04/02 03:57:47;;;;;;;23.48;12.90;;;;;;;4.30;62.24;98134.44;4479850;31;33005;-82
2022/04/02 04:00:16;;;;;;;24.92;14.95;;;;;;;4.62;61.35;98134.75;4490724;31;33241;-82
2022/04/02 04:02:45;;;;;;;20.83;13.55;;;;;;;4.83;60.31;98133.72;4465997;31;33080;-82
2022/04/02 04:05:14;;;;;;;21.87;13.60;;;;;;;4.67;61.28;98137.16;4479424;31;34141;-82
2022/04/02 04:07:42;;;;;;;22.23;13.30;;;;;;;4.80;61.18;98128.66;4465696;31;34829;-81
2022/04/02 04:10:10;;;;;;;22.70;13.88;;;;;;;4.29;63.08;98132.75;4481205;31;32904;-81
2022/04/02 04:12:45;;;;;;;23.25;14.13;;;;;;;4.19;63.50;98135.84;4478781;31;32965;-82
2022/04/02 04:15:14;;;;;;;22.90;14.45;;;;;;;4.16;63.99;98130.75;4466313;31;35109;-81
2022/04/02 04:17:43;;;;;;;22.87;14.15;;;;;;;4.28;63.58;98138.06;4491581;31;33605;-82
2022/04/02 04:20:11;;;;;;;21.15;13.98;;;;;;;4.05;63.97;98145.12;4478804;31;33400;-82
2022/04/02 04:22:39;;;;;;;22.80;13.43;;;;;;;4.40;63.23;98149.69;4482441;31;34627;-81
2022/04/02 04:25:10;;;;;;;21.87;14.27;;;;;;;4.49;62.57;98154.53;4478363;31;33989;-81
2022/04/02 04:27:38;;;;;;;22.90;13.93;;;;;;;4.41;62.73;98151.41;4465376;31;33128;-81
2022/04/02 04:30:07;;;;;;;23.40;13.52;;;;;;;4.52;62.08;98154.41;4465561;31;33660;-81
2022/04/02 04:32:35;;;;;;;21.75;13.27;;;;;;;4.18;63.04;98153.28;4478711;31;33707;-81
2022/04/02 04:35:04;;;;;;;21.95;13.23;;;;;;;4.55;61.77;98160.31;4479672;31;34561;-81
2022/04/02 04:37:37;;;;;;;23.10;13.48;;;;;;;4.39;62.14;98163.69;4478919;31;32830;-81
2022/04/02 04:40:08;;;;;;;28.42;15.25;;;;;;;4.30;62.88;98159.72;4490683;31;33302;-83
2022/04/02 04:42:36;;;;;;;21.65;13.48;;;;;;;4.15;63.50;98171.69;4479342;31;33722;-83
2022/04/02 04:45:04;;;;;;;25.65;14.50;;;;;;;4.35;62.85;98174.28;4476447;31;34657;-83
2022/04/02 04:47:34;;;;;;;24.42;14.52;;;;;;;4.32;62.78;98173.56;4490455;31;35731;-83
2022/04/02 04:50:03;;;;;;;22.98;14.10;;;;;;;4.47;62.19;98161.59;4467015;31;32716;-81
2022/04/02 04:52:35;;;;;;;21.58;13.60;;;;;;;4.72;61.48;98170.00;4472516;31;33100;-82
2022/04/02 04:55:04;;;;;;;23.85;14.55;;;;;;;4.29;62.48;98166.72;4477753;31;34730;-82
2022/04/02 04:57:32;;;;;;;23.92;14.00;;;;;;;4.75;61.52;98167.25;4490976;31;33877;-82
2022/04/02 05:00:03;;;;;;;22.45;13.82;;;;;;;4.85;61.08;98171.13;4479453;31;33829;-81
2022/04/02 05:02:31;;;;;;;23.98;14.73;;;;;;;4.33;62.71;98173.50;4467368;31;33128;-82
2022/04/02 05:05:00;;;;;;;22.08;14.52;;;;;;;4.66;62.12;98169.44;4464328;31;32990;-81
2022/04/02 05:07:49;;;;;;;22.92;13.93;;;;;;;4.80;61.68;98169.66;4479700;31;32515;-82
2022/04/02 05:10:18;;;;;;;24.45;14.07;;;;;;;5.26;59.94;98176.16;4489536;31;33477;-82
2022/04/02 05:12:46;;;;;;;27.25;14.60;;;;;;;5.37;59.25;98176.50;4477075;31;32863;-83
2022/04/02 05:15:14;;;;;;;27.55;15.85;;;;;;;5.29;59.35;98167.34;4476831;31;33000;-82
2022/04/02 05:17:43;;;;;;;25.02;14.75;;;;;;;4.66;61.90;98180.75;4489685;31;33850;-82
2022/04/02 05:20:14;;;;;;;23.55;15.05;;;;;;;5.00;61.16;98180.03;4478604;31;32770;-82
2022/04/02 05:22:43;;;;;;;22.70;13.95;;;;;;;5.10;60.53;98183.06;4478149;31;33463;-81
2022/04/02 05:25:11;;;;;;;24.15;15.18;;;;;;;5.15;60.54;98196.78;4491067;31;33710;-81
2022/04/02 05:27:39;;;;;;;27.33;15.15;;;;;;;5.14;60.63;98201.16;4465052;31;32431;-81
2022/04/02 05:30:08;;;;;;;24.05;14.38;;;;;;;5.39;59.87;98194.75;4489107;31;33595;-82
2022/04/02 05:32:36;;;;;;;24.33;14.63;;;;;;;5.52;59.36;98200.25;4476081;31;33305;-81
2022/04/02 05:35:04;;;;;;;28.40;15.60;;;;;;;5.50;59.42;98199.47;4478854;31;33605;-82
2022/04/02 05:37:32;;;;;;;27.70;14.85;;;;;;;5.47;59.84;98200.47;4463424;31;33047;-81
2022/04/02 05:40:00;;;;;;;23.90;15.23;;;;;;;5.32;60.63;98203.84;4463836;31;32659;-82
2022/04/02 05:42:28;;;;;;;24.83;15.38;;;;;;;5.69;58.62;98202.03;4490332;31;33837;-81
2022/04/02 05:44:57;;;;;;;26.92;16.33;;;;;;;5.35;60.07;98203.66;4476588;31;33524;-81
2022/04/02 05:47:24;;;;;;;25.70;14.52;;;;;;;5.43;59.38;98193.69;4466298;31;33190;-81
2022/04/02 05:49:52;;;;;;;21.23;14.90;;;;;;;5.44;59.29;98202.37;4478249;31;34265;-81
2022/04/02 05:52:20;;;;;;;21.73;13.68;;;;;;;5.33;59.52;98200.28;4479019;31;34492;-81
2022/04/02 05:54:47;;;;;;;26.15;15.57;;;;;;;5.36;59.89;98203.63;4474797;31;34291;-81
2022/04/02 05:57:15;;;;;;;22.75;15.40;;;;;;;5.06;61.42;98218.97;4491288;31;33728;-81
2022/04/02 05:59:43;;;;;;;22.87;14.80;;;;;;;5.22;61.13;98219.13;4492134;31;33477;-81
2022/04/02 06:02:12;;;;;;;27.37;16.12;;;;;;;5.14;61.15;98223.88;4490919;31;32547;-81
2022/04/02 06:04:39;;;;;;;26.02;13.90;;;;;;;5.24;60.93;98211.19;4489922;31;33224;-81
2022/04/02 06:07:07;;;;;;;25.80;14.90;;;;;;;5.27;60.81;98204.06;4481743;31;33551;-80
2022/04/02 06:09:35;;;;;;;20.80;13.57;;;;;;;5.56;60.34;98205.25;4492238;31;32926;-80
2022/04/02 06:12:03;;;;;;;28.83;16.25;;;;;;;5.59;59.99;98212.09;4465544;31;32812;-81
2022/04/02 06:14:31;;;;;;;24.98;14.55;;;;;;;5.89;58.85;98215.00;4486969;31;34572;-81
2022/04/02 06:16:59;;;;;;;22.85;13.30;;;;;;;5.63;59.79;98218.88;4479458;31;33414;-81
2022/04/02 06:19:26;;;;;;;21.90;13.35;;;;;;;5.63;59.42;98224.13;4476933;31;32979;-81
2022/04/02 06:22:00;;;;;;;21.70;12.45;;;;;;;5.75;58.00;98223.53;4490822;31;33388;-80
2022/04/02 06:24:28;;;;;;;25.35;13.27;;;;;;;5.76;57.47;98227.00;4487534;31;33983;-80
2022/04/02 06:26:55;;;;;;;25.58;13.75;;;;;;;5.63;58.04;98235.44;4475886;31;34353;-80
2022/04/02 06:29:23;;;;;;;21.70;12.93;;;;;;;5.53;58.89;98236.81;4483529;31;33323;-80
2022/04/02 06:31:51;;;;;;;24.27;14.35;;;;;;;5.56;59.28;98226.22;4472945;31;32726;-79
2022/04/02 06:34:18;;;;;;;19.95;13.15;;;;;;;5.54;60.65;98229.81;4489381;31;34505;-79
2022/04/02 06:36:46;;;;;;;25.88;14.85;;;;;;;5.70;60.00;98229.91;4466024;31;33538;-80
2022/04/02 06:39:14;;;;;;;23.98;13.35;;;;;;;6.13;58.12;98234.75;4469942;31;32751;-80
2022/04/02 06:41:42;;;;;;;24.17;15.00;;;;;;;5.92;59.01;98234.97;4489236;31;33523;-79
2022/04/02 06:44:10;;;;;;;28.33;13.70;;;;;;;5.72;60.70;98239.38;4488136;31;33355;-80
2022/04/02 06:46:37;;;;;;;21.15;12.95;;;;;;;6.06;59.21;98228.13;4475416;31;33258;-80
2022/04/02 06:49:06;;;;;;;26.30;17.12;;;;;;;5.90;58.04;98230.63;4477421;31;34142;-81
2022/04/02 06:51:34;;;;;;;21.85;13.40;;;;;;;5.87;58.44;98243.88;4466370;31;32583;-80
2022/04/02 06:54:03;;;;;;;19.23;12.32;;;;;;;6.22;57.42;98230.81;4489379;31;33536;-81
2022/04/02 06:56:31;;;;;;;21.42;13.07;;;;;;;6.20;56.98;98234.44;4477085;31;33272;-82
2022/04/02 06:58:58;;;;;;;20.05;12.10;;;;;;;6.12;58.77;98240.06;4474984;31;33612;-82
2022/04/02 07:01:26;;;;;;;26.48;15.75;;;;;;;6.40;58.19;98240.34;4488285;31;33108;-81
2022/04/02 07:03:54;;;;;;;21.42;13.80;;;;;;;6.30;58.40;98236.50;4477420;31;33634;-82
2022/04/02 07:06:21;;;;;;;20.73;12.82;;;;;;;6.57;58.24;98243.88;4486733;31;33493;-82
2022/04/02 07:08:49;;;;;;;21.35;10.35;;;;;;;6.85;56.93;98244.12;4489507;31;33164;-82
2022/04/02 07:11:17;;;;;;;20.67;11.93;;;;;;;6.91;54.80;98243.78;4475182;32;33510;-79
2022/04/02 07:13:44;;;;;;;17.62;11.73;;;;;;;6.73;55.26;98242.13;4468353;32;35246;-79
2022/04/02 07:16:12;;;;;;;18.50;11.73;;;;;;;6.55;56.77;98240.47;4475670;31;32680;-79
2022/04/02 07:18:44;;;;;;;19.30;11.68;;;;;;;6.61;56.51;98245.41;4490650;31;32942;-79
2022/04/02 07:21:16;;;;;;;20.48;14.35;;;;;;;6.44;57.16;98248.06;4490487;31;33419;-78
2022/04/02 07:23:46;;;;;;;17.02;10.77;;;;;;;6.47;56.17;98246.13;4484844;31;34699;-80
2022/04/02 07:26:16;;;;;;;17.20;10.63;;;;;;;5.94;60.17;98259.34;4493234;31;34188;-80
2022/04/02 07:28:44;;;;;;;16.27;11.48;;;;;;;6.50;57.17;98248.56;4477810;31;32941;-80
2022/04/02 07:31:12;;;;;;;20.60;11.85;;;;;;;6.16;58.06;98247.69;4480027;31;33510;-80
2022/04/02 07:33:40;;;;;;;17.25;11.18;;;;;;;6.30;57.81;98252.22;4489606;31;33337;-79
2022/04/02 07:36:24;;;;;;;16.87;10.18;;;;;;;6.64;55.82;98250.47;4488184;31;35743;-81
2022/04/02 07:39:02;;;;;;;13.07;9.73;;;;;;;6.87;55.18;98252.72;4477857;31;32667;-79
2022/04/02 07:41:46;;;;;;;15.95;10.02;;;;;;;6.83;54.89;98255.59;4490346;31;34009;-80
2022/04/02 07:44:21;;;;;;;16.00;10.65;;;;;;;6.49;57.66;98256.53;4492959;31;33651;-80
2022/04/02 07:46:49;;;;;;;15.60;9.55;;;;;;;6.75;56.49;98263.06;4491297;31;34629;-80
2022/04/02 07:49:21;;;;;;;17.50;10.30;;;;;;;7.12;55.76;98261.91;4475947;31;32882;-79
2022/04/02 07:51:53;;;;;;;17.37;10.77;;;;;;;7.25;55.20;98262.09;4468501;31;34241;-80
2022/04/02 07:54:23;;;;;;;17.20;9.63;;;;;;;7.39;55.43;98263.03;4464547;31;33246;-80
2022/04/02 07:56:56;;;;;;;16.15;10.43;;;;;;;7.54;53.22;98260.47;4465424;31;33488;-80
2022/04/02 07:59:42;;;;;;;17.80;10.77;;;;;;;7.17;54.17;98260.75;4479840;31;32376;-80
2022/04/02 08:05:00;;;;;;;19.83;11.32;;;;;;;7.16;55.26;98268.69;4479346;31;32961;-80
2022/04/02 08:07:32;;;;;;;15.57;9.77;;;;;;;7.04;57.28;98266.75;4490644;31;34021;-80
2022/04/02 08:10:04;;;;;;;17.50;11.23;;;;;;;7.38;55.41;98263.97;4489030;31;34422;-80
2022/04/02 08:12:40;;;;;;;15.82;10.10;;;;;;;7.43;54.88;98269.81;4476622;31;32476;-80
2022/04/02 08:15:11;;;;;;;16.52;10.15;;;;;;;7.48;55.30;98266.94;4492008;31;33328;-80
2022/04/02 08:17:40;;;;;;;17.40;10.50;;;;;;;7.40;54.79;98272.59;4489146;31;33935;-80
2022/04/02 08:20:10;;;;;;;14.77;9.52;;;;;;;7.85;53.85;98276.22;4478858;31;32258;-80
2022/04/02 08:22:38;;;;;;;14.85;9.50;;;;;;;7.39;56.95;98273.53;4489365;31;33674;-80
2022/04/02 08:25:06;;;;;;;17.27;11.05;;;;;;;8.12;54.09;98270.34;4477011;31;34422;-80
2022/04/02 08:27:35;;;;;;;16.83;11.18;;;;;;;8.21;55.40;98269.75;4488848;31;33230;-80
2022/04/02 08:30:12;;;;;;;17.98;10.73;;;;;;;8.44;52.18;98271.91;4485041;31;33873;-81
2022/04/02 08:33:31;;;;;;;17.87;10.30;;;;;;;8.64;51.77;98273.38;4481806;31;32919;-80
2022/04/02 08:35:58;;;;;;;16.58;10.48;;;;;;;8.79;51.31;98282.12;4444813;32;36397;-79
2022/04/02 08:38:40;;;;;;;15.80;10.90;;;;;;;8.14;53.49;98284.22;4443615;32;32939;-81
2022/04/02 08:41:27;;;;;;;21.23;11.23;;;;;;;8.39;51.71;98284.50;4458065;31;33789;-81
2022/04/02 08:44:22;;;;;;;17.23;9.95;;;;;;;7.92;54.15;98295.09;4484997;31;33966;-80
2022/04/02 08:47:17;;;;;;;18.75;10.80;;;;;;;8.20;53.03;98292.59;4489634;31;34050;-80
2022/04/02 08:50:10;;;;;;;14.27;10.30;;;;;;;8.46;52.76;98291.09;4490694;31;33663;-81
2022/04/02 08:52:37;;;;;;;;;;;;;;;8.39;53.32;98291.53;4469116;31;32252;-81
2022/04/02 08:55:12;;;;;;;16.80;10.15;;;;;;;8.39;53.88;98297.66;4491063;31;33456;-81
2022/04/02 08:57:53;;;;;;;15.60;10.70;;;;;;;8.58;52.51;98300.03;4493204;31;33945;-81
2022/04/02 09:00:25;;;;;;;16.35;9.73;;;;;;;8.52;52.92;98299.56;4491135;31;33499;-80
2022/04/02 09:03:11;;;;;;;16.75;10.05;;;;;;;8.58;51.93;98301.81;4493609;31;34605;-81
2022/04/02 09:05:54;;;;;;;17.23;11.40;;;;;;;8.62;52.29;98295.44;4490028;31;34082;-81
2022/04/02 09:08:42;;;;;;;15.15;9.05;;;;;;;8.45;54.30;98305.19;4478042;31;33099;-81
2022/04/02 09:11:26;;;;;;;17.52;9.07;;;;;;;8.34;53.45;98306.72;4476546;31;34597;-81
2022/04/02 09:14:06;;;;;;;14.80;9.38;;;;;;;8.19;53.99;98308.47;4489353;31;33855;-81
2022/04/02 09:16:59;;;;;;;16.12;10.27;;;;;;;8.71;52.08;98311.53;4491269;31;32899;-81
2022/04/02 09:19:31;;;;;;;15.60;9.45;;;;;;;8.93;52.02;98321.63;4492576;31;34448;-81
2022/04/02 09:22:21;;;;;;;15.07;9.57;;;;;;;9.00;50.73;98318.63;4466533;31;32905;-81
2022/04/02 09:25:23;;;;;;;15.40;9.50;;;;;;;8.69;52.20;98325.75;4478894;31;34068;-81
2022/04/02 09:27:54;;;;;;;14.40;9.47;;;;;;;8.96;51.24;98328.47;4484361;31;33781;-81
2022/04/02 09:30:46;;;;;;;15.52;10.05;;;;;;;9.33;50.05;98329.72;4490019;31;33581;-81
2022/04/02 09:33:32;;;;;;;12.77;8.73;;;;;;;9.13;50.36;98325.69;4489356;31;33160;-81
2022/04/02 09:36:22;;;;;;;12.05;8.38;;;;;;;8.69;53.35;98333.63;4492547;31;34390;-80
2022/04/02 09:38:57;;;;;;;14.73;8.75;;;;;;;8.87;51.52;98337.78;4476099;31;34299;-80
2022/04/02 09:41:24;;;;;;;14.73;8.85;;;;;;;8.62;52.49;98343.66;4476462;31;33472;-81
2022/04/02 09:44:13;;;;;;;15.60;9.25;;;;;;;8.51;53.95;98346.09;4490559;31;33623;-81
2022/04/02 09:46:49;;;;;;;15.40;8.95;;;;;;;8.81;51.40;98347.84;4462115;31;32079;-81
2022/04/02 09:49:53;;;;;;;14.07;8.25;;;;;;;8.84;51.22;98343.25;4477433;31;32109;-81
2022/04/02 09:52:23;;;;;;;15.05;9.05;;;;;;;8.71;52.60;98350.16;4473620;31;35132;-81
2022/04/02 09:55:03;;;;;;;15.02;9.68;;;;;;;8.49;53.46;98347.09;4465749;31;33238;-80
2022/04/02 09:57:42;;;;;;;13.77;8.77;;;;;;;8.90;51.67;98356.03;4490174;31;32192;-80
2022/04/02 10:00:13;;;;;;;13.62;8.77;;;;;;;9.10;50.32;98359.25;4491724;31;33446;-80
2022/04/02 10:03:11;;;;;;;16.30;9.80;;;;;;;9.10;51.05;98360.09;4479441;31;34696;-80
2022/04/02 10:05:54;;;;;;;12.57;8.80;;;;;;;8.82;52.37;98360.03;4490976;31;33465;-80
2022/04/02 10:08:48;;;;;;;12.52;8.10;;;;;;;8.70;52.10;98354.59;4475943;32;33822;-80
2022/04/02 10:11:18;;;;;;;11.93;8.57;;;;;;;9.04;51.66;98362.25;4476414;31;34103;-81
2022/04/02 10:13:47;;;;;;;13.38;8.82;;;;;;;9.07;51.43;98364.69;4464581;32;33213;-80
2022/04/02 10:16:18;;;;;;;14.90;9.05;;;;;;;9.20;51.59;98358.56;4476141;31;33839;-80
2022/04/02 10:18:47;;;;;;;13.13;8.48;;;;;;;9.38;50.06;98358.41;4467276;31;33594;-81
2022/04/02 10:21:16;;;;;;;14.55;9.20;;;;;;;9.21;50.42;98362.09;4487346;31;34572;-80
2022/04/02 10:24:09;;;;;;;15.00;9.18;;;;;;;9.14;51.29;98366.03;4470640;31;33904;-80
2022/04/02 10:26:39;;;;;;;11.52;7.90;;;;;;;9.16;51.58;98361.50;4485038;31;33952;-81
2022/04/02 10:29:12;;;;;;;15.95;8.57;;;;;;;8.91;52.15;98365.59;4465037;31;32647;-81
2022/04/02 10:31:50;;;;;;;14.73;7.72;;;;;;;9.01;52.10;98365.06;4477576;31;33473;-81
2022/04/02 10:34:49;;;;;;;10.23;6.32;;;;;;;8.91;51.34;98355.06;4480031;31;33195;-81
2022/04/02 10:37:18;;;;;;;12.13;7.65;;;;;;;8.90;50.38;98356.03;4488069;31;34199;-80
2022/04/02 10:40:00;;;;;;;10.52;7.20;;;;;;;8.78;52.19;98362.00;4477352;31;32622;-81
2022/04/02 10:42:35;;;;;;;;;;;;;;;8.63;52.88;98360.28;4477386;31;33238;-80
2022/04/02 10:45:07;;;;;;;9.52;6.28;;;;;;;8.86;51.89;98362.41;4492255;31;36031;-80
2022/04/02 10:47:44;;;;;;;10.25;7.25;;;;;;;8.98;52.10;98366.94;4489393;31;34759;-80
2022/04/02 10:50:12;;;;;;;9.43;6.25;;;;;;;9.13;50.12;98375.72;4489247;31;33525;-79
2022/04/02 10:52:43;;;;;;;11.32;7.22;;;;;;;8.91;51.17;98370.87;4490903;31;33896;-80
2022/04/02 10:55:19;;;;;;;11.07;7.22;;;;;;;9.21;50.56;98370.00;4477080;31;32734;-80
2022/04/02 10:57:47;;;;;;;15.90;7.32;;;;;;;9.10;49.85;98375.88;4476432;31;33541;-80
2022/04/02 11:00:15;;;;;;;13.02;8.05;;;;;;;8.80;51.35;98375.09;4477180;31;33460;-80
2022/04/02 11:02:44;;;;;;;10.57;6.70;;;;;;;8.48;52.96;98376.97;4477335;31;35639;-80
2022/04/02 11:05:14;;;;;;;12.43;8.57;;;;;;;8.78;51.06;98385.69;4491955;31;33284;-80
2022/04/02 11:07:44;;;;;;;11.38;7.85;;;;;;;8.98;50.79;98388.00;4487271;31;32534;-80
2022/04/02 11:10:20;;;;;;;12.07;7.28;;;;;;;8.88;50.76;98392.13;4492177;31;32698;-80
2022/04/02 11:12:59;;;;;;;9.40;6.72;;;;;;;8.63;51.40;98397.12;4491158;31;33726;-80
2022/04/02 11:15:31;;;;;;;10.38;6.68;;;;;;;8.36;52.88;98400.41;4463436;31;34016;-80
2022/04/02 11:18:01;;;;;;;10.48;6.87;;;;;;;8.49;52.56;98394.44;4478157;31;34702;-80
2022/04/02 11:20:31;;;;;;;10.50;7.75;;;;;;;8.56;52.46;98390.53;4489744;31;34099;-80
2022/04/02 11:23:43;;;;;;;20.10;9.38;;;;;;;8.58;52.45;98397.38;4475875;31;33141;-80
2022/04/02 11:26:15;;;;;;;12.30;7.15;;;;;;;8.51;52.35;98389.97;4490117;31;34854;-80
2022/04/02 11:28:52;;;;;;;10.98;6.45;;;;;;;8.46;52.88;98395.47;4485443;31;33825;-80
2022/04/02 11:31:27;;;;;;;;;;;;;;;8.67;52.47;98398.66;4466159;32;32606;-80
2022/04/02 11:33:57;;;;;;;11.05;7.47;;;;;;;8.54;52.94;98392.37;4477972;31;34934;-80
2022/04/02 11:36:59;;;;;;;12.43;9.07;;;;;;;8.81;51.86;98396.06;4465670;31;33199;-80
2022/04/02 11:39:36;;;;;;;13.30;7.53;;;;;;;8.76;51.91;98403.38;4479756;31;33798;-80
2022/04/02 11:42:05;;;;;;;12.48;7.05;;;;;;;8.56;54.27;98406.31;4487102;31;33377;-80
2022/04/02 11:44:38;;;;;;;11.20;7.57;;;;;;;8.83;51.95;98404.72;4489301;31;33705;-80
2022/04/02 11:47:08;;;;;;;11.23;7.57;;;;;;;8.70;52.62;98409.00;4477547;31;33481;-80
2022/04/02 11:49:42;;;;;;;10.77;7.18;;;;;;;8.69;52.43;98402.91;4490482;31;33601;-80
2022/04/02 11:52:13;;;;;;;9.63;6.75;;;;;;;8.67;52.84;98399.50;4476550;31;34158;-80
2022/04/02 11:54:51;;;;;;;10.93;7.28;;;;;;;8.63;53.69;98405.00;4468319;31;33922;-80
2022/04/02 11:57:20;;;;;;;11.12;7.55;;;;;;;8.84;51.91;98416.94;4477217;31;33507;-80
2022/04/02 11:59:57;;;;;;;12.60;7.45;;;;;;;8.97;51.52;98406.50;4488459;31;33607;-80